Time;durP1;ratioP1;P1;durP2;ratioP2;P2;SDS_P1;SDS_P2;PMS_P1;PMS_P2;Temp;Humidity;BMP_temperature;BMP_pressure;BME280_temperature;BME280_humidity;BME280_pressure;Samples;Min_cycle;Max_cycle;Signal;HPM_P1;HPM_P2
2021/04/18 00:02:59;;;;;;;14.40;10.67;;;9.40;68.80;;;;;;6248285;28;20490;-58
2021/04/18 00:06:01;;;;;;;14.80;11.40;;;9.30;68.60;;;;;;6248028;28;20439;-57
2021/04/18 00:09:04;;;;;;;13.50;11.60;;;9.30;68.90;;;;;;6242395;28;20458;-58
2021/04/18 00:12:08;;;;;;;12.57;11.10;;;9.40;68.90;;;;;;6241613;28;20455;-58
2021/04/18 00:15:12;;;;;;;14.10;11.37;;;9.40;69.10;;;;;;6223822;28;20465;-59
2021/04/18 00:18:15;;;;;;;12.20;10.50;;;9.30;69.20;;;;;;6221603;28;20927;-57
2021/04/18 00:21:17;;;;;;;11.50;10.40;;;9.40;69.10;;;;;;6230148;28;20595;-58
2021/04/18 00:24:19;;;;;;;14.27;11.00;;;9.40;69.20;;;;;;6243816;28;20474;-58
2021/04/18 00:27:22;;;;;;;11.50;10.40;;;9.40;70.00;;;;;;6245375;28;20477;-59
2021/04/18 00:30:25;;;;;;;11.53;10.33;;;9.40;69.30;;;;;;6247656;28;20482;-58
2021/04/18 00:33:34;;;;;;;11.70;10.33;;;9.40;69.30;;;;;;6247219;28;20471;-58
2021/04/18 00:36:37;;;;;;;12.30;11.00;;;9.40;69.40;;;;;;6248654;28;20471;-61
2021/04/18 00:39:39;;;;;;;15.17;12.83;;;9.40;69.30;;;;;;6224793;28;20472;-59
2021/04/18 00:42:43;;;;;;;11.67;10.50;;;9.40;69.50;;;;;;6225014;28;20467;-58
2021/04/18 00:45:45;;;;;;;12.30;10.90;;;9.30;69.60;;;;;;6238921;28;20486;-61
2021/04/18 00:48:47;;;;;;;13.70;10.80;;;9.30;69.80;;;;;;6247831;28;20484;-57
2021/04/18 00:51:49;;;;;;;15.40;10.30;;;9.30;70.10;;;;;;6248215;28;20478;-58
2021/04/18 00:54:51;;;;;;;11.77;10.53;;;9.30;70.20;;;;;;6250162;28;20477;-59
2021/04/18 00:57:56;;;;;;;11.67;9.93;;;9.30;70.30;;;;;;6249577;28;20475;-61
2021/04/18 01:00:58;;;;;;;11.20;10.10;;;9.20;70.40;;;;;;6248959;28;20482;-60
2021/04/18 01:04:01;;;;;;;12.33;10.87;;;9.20;70.30;;;;;;6249520;28;20470;-61
2021/04/18 01:07:03;;;;;;;14.57;10.50;;;9.20;70.30;;;;;;6249967;28;20489;-61
2021/04/18 01:10:10;;;;;;;14.10;12.10;;;9.10;71.30;;;;;;6249671;28;20473;-61
2021/04/18 01:13:13;;;;;;;12.40;10.57;;;9.10;71.60;;;;;;6254424;28;20478;-60
2021/04/18 01:16:16;;;;;;;12.83;11.23;;;9.10;71.60;;;;;;6249672;28;20463;-59
2021/04/18 01:19:18;;;;;;;12.60;10.37;;;9.10;71.60;;;;;;6249705;28;20477;-60
2021/04/18 01:22:22;;;;;;;12.83;10.90;;;9.20;71.80;;;;;;6249104;28;20980;-59
2021/04/18 01:25:24;;;;;;;12.00;10.73;;;9.20;71.70;;;;;;6249181;28;20473;-60
2021/04/18 01:28:26;;;;;;;11.50;10.30;;;9.20;71.60;;;;;;6249454;28;20467;-61
2021/04/18 01:31:28;;;;;;;11.50;10.30;;;9.20;72.50;;;;;;6249363;28;20921;-60
2021/04/18 01:34:31;;;;;;;14.50;11.40;;;9.20;71.60;;;;;;6249367;28;20471;-61
2021/04/18 01:37:35;;;;;;;13.10;11.07;;;9.20;72.00;;;;;;6249352;28;20810;-59
2021/04/18 01:40:37;;;;;;;12.67;11.30;;;9.20;72.10;;;;;;6248986;28;20572;-60
2021/04/18 01:43:40;;;;;;;11.47;10.47;;;9.10;72.30;;;;;;6249341;28;20809;-59
2021/04/18 01:46:44;;;;;;;13.33;10.53;;;9.10;73.20;;;;;;6249425;28;20471;-60
2021/04/18 01:49:46;;;;;;;12.73;11.43;;;9.10;72.80;;;;;;6249424;28;20467;-60
2021/04/18 01:52:49;;;;;;;16.20;11.83;;;9.10;73.50;;;;;;6249438;28;20494;-59
2021/04/18 01:55:51;;;;;;;17.60;13.50;;;9.00;73.70;;;;;;6249273;28;20467;-60
2021/04/18 01:58:54;;;;;;;14.73;12.30;;;9.10;74.00;;;;;;6248895;28;20475;-59
2021/04/18 02:02:06;;;;;;;13.87;12.03;;;9.10;74.30;;;;;;6253698;28;20503;-59
2021/04/18 02:05:10;;;;;;;13.57;11.27;;;9.10;74.70;;;;;;6253442;28;21006;-58
2021/04/18 02:08:13;;;;;;;15.53;12.80;;;9.10;74.70;;;;;;6253631;28;20474;-59
2021/04/18 02:11:15;;;;;;;13.40;11.33;;;9.10;75.20;;;;;;6257933;28;20805;-59
2021/04/18 02:14:17;;;;;;;13.70;12.30;;;9.10;75.60;;;;;;6253068;28;20478;-58
2021/04/18 02:17:20;;;;;;;13.50;12.07;;;9.10;75.70;;;;;;6251279;28;20477;-58
2021/04/18 02:20:22;;;;;;;14.40;11.67;;;9.20;75.80;;;;;;6251105;28;20544;-58
2021/04/18 02:23:25;;;;;;;14.70;11.53;;;9.20;76.40;;;;;;6250272;28;20586;-57
2021/04/18 02:26:27;;;;;;;14.90;12.57;;;9.10;75.90;;;;;;6249560;28;20464;-57
2021/04/18 02:29:29;;;;;;;14.50;12.17;;;9.10;75.80;;;;;;6250343;28;20478;-57
2021/04/18 02:32:31;;;;;;;16.50;12.37;;;9.10;76.30;;;;;;6251466;28;20472;-58
2021/04/18 02:35:34;;;;;;;13.50;11.90;;;9.10;76.80;;;;;;6252579;28;20485;-57
2021/04/18 02:38:37;;;;;;;13.50;12.10;;;9.10;77.30;;;;;;6252145;28;20475;-57
2021/04/18 02:41:39;;;;;;;15.17;11.43;;;9.10;77.30;;;;;;6251920;28;20481;-57
2021/04/18 02:44:41;;;;;;;12.47;11.13;;;9.10;77.30;;;;;;6252743;28;20485;-57
2021/04/18 02:47:44;;;;;;;12.23;11.03;;;9.10;77.50;;;;;;6251774;28;20479;-57
2021/04/18 02:50:48;;;;;;;13.30;10.93;;;9.10;77.70;;;;;;6251751;28;20477;-57
2021/04/18 02:53:58;;;;;;;12.67;11.47;;;9.10;77.90;;;;;;6252923;28;20493;-57
2021/04/18 02:57:00;;;;;;;15.73;10.80;;;9.10;77.90;;;;;;6252088;28;20541;-58
2021/04/18 03:00:03;;;;;;;13.03;11.23;;;9.10;77.90;;;;;;6252359;28;20796;-57
2021/04/18 03:03:06;;;;;;;13.37;11.40;;;9.10;78.00;;;;;;6252055;28;20483;-58
2021/04/18 03:06:08;;;;;;;12.47;11.10;;;9.10;78.00;;;;;;6252530;28;20439;-57
2021/04/18 03:09:11;;;;;;;11.87;10.67;;;9.10;78.30;;;;;;6252389;28;20451;-57
2021/04/18 03:12:13;;;;;;;13.83;11.50;;;9.00;78.30;;;;;;6251714;28;20454;-57
2021/04/18 03:15:16;;;;;;;12.00;10.60;;;9.10;78.50;;;;;;6251789;28;20477;-57
2021/04/18 03:18:18;;;;;;;10.57;9.47;;;9.00;78.20;;;;;;6252193;28;20451;-56
2021/04/18 03:21:20;;;;;;;16.47;13.07;;;9.10;78.60;;;;;;6242421;28;20470;-57
2021/04/18 03:24:23;;;;;;;15.03;11.43;;;9.00;78.40;;;;;;6251975;28;20478;-56
2021/04/18 03:27:25;;;;;;;17.03;12.27;;;9.00;78.50;;;;;;6251989;28;20474;-56
2021/04/18 03:30:28;;;;;;;13.63;11.33;;;9.00;78.80;;;;;;6251514;28;20962;-57
2021/04/18 03:33:30;;;;;;;12.47;9.90;;;9.00;79.00;;;;;;6251802;28;20542;-57
2021/04/18 03:36:32;;;;;;;11.80;10.70;;;9.00;79.10;;;;;;6251886;28;20511;-57
2021/04/18 03:39:35;;;;;;;13.87;11.57;;;8.90;78.60;;;;;;6251961;28;20843;-57
2021/04/18 03:42:37;;;;;;;12.50;11.10;;;8.80;79.10;;;;;;6251151;28;20494;-57
2021/04/18 03:45:39;;;;;;;12.73;11.30;;;8.80;78.60;;;;;;6251630;28;20577;-58
2021/04/18 03:48:41;;;;;;;15.37;11.57;;;8.80;78.70;;;;;;6251527;28;20482;-58
2021/04/18 03:51:44;;;;;;;15.10;11.70;;;8.80;78.70;;;;;;6251249;28;20959;-62
2021/04/18 03:54:47;;;;;;;16.13;11.90;;;8.80;78.20;;;;;;6250813;28;20835;-57
2021/04/18 03:57:49;;;;;;;13.53;11.40;;;8.80;77.90;;;;;;6250823;28;20966;-57
2021/04/18 04:00:51;;;;;;;12.50;11.03;;;8.80;77.90;;;;;;6251030;28;20467;-58
2021/04/18 04:03:53;;;;;;;13.77;11.60;;;8.80;78.20;;;;;;6250781;28;20498;-59
2021/04/18 04:06:57;;;;;;;12.10;10.80;;;8.80;78.00;;;;;;6251053;28;20478;-59
2021/04/18 04:10:00;;;;;;;13.27;11.83;;;8.80;77.90;;;;;;6250642;28;20482;-58
2021/04/18 04:13:02;;;;;;;15.63;11.03;;;8.80;77.60;;;;;;6250963;28;20484;-57
2021/04/18 04:16:05;;;;;;;15.43;12.23;;;8.80;78.30;;;;;;6250815;28;20482;-58
2021/04/18 04:19:07;;;;;;;13.20;11.47;;;8.80;77.90;;;;;;6250480;28;20818;-59
2021/04/18 04:22:09;;;;;;;12.67;11.37;;;8.80;78.00;;;;;;6250551;28;20795;-58
2021/04/18 04:25:13;;;;;;;16.60;13.57;;;8.80;77.90;;;;;;6244962;28;20490;-58
2021/04/18 04:28:15;;;;;;;15.07;12.20;;;8.80;78.00;;;;;;6250436;28;20955;-58
2021/04/18 04:31:17;;;;;;;13.90;11.67;;;8.80;78.30;;;;;;6250436;28;20467;-58
2021/04/18 04:34:19;;;;;;;14.67;11.60;;;8.90;78.20;;;;;;6250454;28;20772;-58
2021/04/18 04:37:21;;;;;;;12.23;10.90;;;8.80;77.60;;;;;;6250139;28;20915;-59
2021/04/18 04:40:25;;;;;;;12.70;11.40;;;8.90;78.10;;;;;;6250177;28;20471;-59
2021/04/18 04:43:27;;;;;;;13.27;11.97;;;8.90;77.70;;;;;;6250257;28;20490;-59
2021/04/18 04:46:29;;;;;;;12.00;10.80;;;8.90;77.30;;;;;;6250085;28;20494;-59
2021/04/18 04:49:32;;;;;;;13.87;12.50;;;8.90;77.60;;;;;;6250036;28;20488;-59
2021/04/18 04:52:34;;;;;;;14.80;13.23;;;8.90;77.60;;;;;;6250521;28;20481;-58
2021/04/18 04:55:37;;;;;;;19.43;12.93;;;8.80;77.10;;;;;;6250364;28;20478;-59
2021/04/18 04:58:39;;;;;;;15.10;12.40;;;8.80;78.20;;;;;;6249745;28;20485;-59
2021/04/18 05:01:41;;;;;;;12.40;11.17;;;8.80;78.20;;;;;;6249577;28;20483;-58
2021/04/18 05:04:43;;;;;;;13.83;12.20;;;8.80;78.80;;;;;;6250127;28;20564;-58
2021/04/18 05:07:45;;;;;;;13.90;12.33;;;8.80;79.30;;;;;;6249959;28;20501;-58
2021/04/18 05:10:49;;;;;;;12.60;11.37;;;8.80;79.50;;;;;;6249171;28;20498;-58
2021/04/18 05:13:51;;;;;;;12.93;11.43;;;8.70;79.50;;;;;;6249694;28;20817;-59
2021/04/18 05:16:53;;;;;;;12.80;11.60;;;8.70;79.80;;;;;;6249603;28;20467;-59
2021/04/18 05:19:55;;;;;;;13.67;12.27;;;8.70;79.90;;;;;;6249607;28;20474;-58
2021/04/18 05:22:57;;;;;;;15.20;11.30;;;8.70;80.00;;;;;;6249562;28;20471;-58
2021/04/18 05:26:00;;;;;;;14.57;12.80;;;8.70;80.10;;;;;;6249770;28;20471;-59
2021/04/18 05:29:03;;;;;;;15.17;13.60;;;8.60;80.50;;;;;;6249576;28;20539;-58
2021/04/18 05:32:06;;;;;;;14.63;12.57;;;8.40;81.00;;;;;;6245331;28;20471;-58
2021/04/18 05:35:10;;;;;;;14.37;12.83;;;8.40;81.80;;;;;;6252176;28;20475;-59
2021/04/18 05:38:12;;;;;;;15.80;12.17;;;8.40;82.00;;;;;;6254408;28;20475;-59
2021/04/18 05:41:15;;;;;;;13.40;11.37;;;8.40;82.20;;;;;;6254334;28;20471;-59
2021/04/18 05:44:17;;;;;;;16.60;14.90;;;8.30;82.60;;;;;;6253940;28;20482;-59
2021/04/18 05:47:19;;;;;;;14.60;13.10;;;8.40;82.60;;;;;;6254362;28;20481;-59
2021/04/18 05:50:22;;;;;;;15.20;13.30;;;8.30;82.90;;;;;;6254286;28;20474;-59
2021/04/18 05:53:24;;;;;;;13.50;12.20;;;8.30;83.70;;;;;;6254080;28;21096;-59
2021/04/18 05:56:27;;;;;;;15.93;12.93;;;8.30;83.90;;;;;;6253768;28;20482;-59
2021/04/18 05:59:29;;;;;;;15.97;13.50;;;8.40;83.80;;;;;;6253701;28;20478;-58
2021/04/18 06:02:32;;;;;;;15.17;13.07;;;8.50;83.20;;;;;;6253522;28;20485;-58
2021/04/18 06:05:35;;;;;;;15.10;13.57;;;8.60;84.10;;;;;;6254144;28;20467;-58
2021/04/18 06:08:38;;;;;;;14.20;12.80;;;8.70;83.20;;;;;;6253531;28;20485;-58
2021/04/18 06:11:41;;;;;;;14.40;12.97;;;8.70;83.10;;;;;;6253581;28;20942;-58
2021/04/18 06:14:43;;;;;;;16.00;14.30;;;8.80;83.00;;;;;;6253264;28;20489;-59
2021/04/18 06:17:45;;;;;;;13.80;12.40;;;8.80;82.60;;;;;;6253452;28;20808;-59
2021/04/18 06:20:47;;;;;;;18.30;14.13;;;8.80;82.50;;;;;;6253287;28;20474;-59
2021/04/18 06:23:50;;;;;;;14.80;13.30;;;8.80;82.40;;;;;;6252986;28;20485;-59
2021/04/18 06:26:53;;;;;;;15.63;14.03;;;8.70;83.20;;;;;;6253102;28;20475;-58
2021/04/18 06:29:55;;;;;;;15.73;12.93;;;8.70;83.00;;;;;;6253601;28;20858;-58
2021/04/18 06:32:57;;;;;;;14.97;13.33;;;8.80;82.80;;;;;;6252892;28;20816;-58
2021/04/18 06:36:00;;;;;;;17.53;14.87;;;8.80;82.30;;;;;;6243665;28;20521;-60
2021/04/18 06:39:03;;;;;;;20.50;15.10;;;8.90;82.40;;;;;;6252772;28;20489;-60
2021/04/18 06:42:07;;;;;;;15.87;13.60;;;9.00;82.70;;;;;;6228145;28;20472;-59
2021/04/18 06:45:10;;;;;;;14.87;13.43;;;9.00;82.00;;;;;;6227934;28;20468;-59
2021/04/18 06:48:14;;;;;;;16.90;14.77;;;9.00;82.20;;;;;;6227041;28;20983;-59
2021/04/18 06:51:16;;;;;;;15.70;14.20;;;9.00;82.80;;;;;;6228202;28;20510;-60
2021/04/18 06:54:19;;;;;;;15.97;14.30;;;9.20;81.80;;;;;;6228238;28;20468;-59
2021/04/18 06:57:22;;;;;;;18.80;15.17;;;9.20;81.50;;;;;;6227983;28;20486;-59
2021/04/18 07:00:24;;;;;;;17.90;15.00;;;9.20;80.10;;;;;;6228245;28;20479;-60
2021/04/18 07:03:35;;;;;;;15.77;14.17;;;9.20;82.00;;;;;;6227708;28;20960;-60
2021/04/18 07:06:39;;;;;;;17.97;16.10;;;9.40;80.70;;;;;;6227833;28;20483;-60
2021/04/18 07:09:44;;;;;;;16.70;15.00;;;9.40;80.20;;;;;;6227725;28;20482;-60
2021/04/18 07:12:47;;;;;;;15.47;13.50;;;9.50;79.20;;;;;;6227970;28;20472;-60
2021/04/18 07:15:49;;;;;;;15.03;12.97;;;9.70;78.90;;;;;;6227330;28;20479;-59
2021/04/18 07:18:52;;;;;;;16.43;14.70;;;9.70;78.30;;;;;;6227506;28;20812;-59
2021/04/18 07:21:56;;;;;;;16.27;13.90;;;9.80;78.00;;;;;;6227447;28;20800;-58
2021/04/18 07:25:00;;;;;;;16.70;14.97;;;9.90;77.30;;;;;;6227320;28;20472;-59
2021/04/18 07:28:03;;;;;;;20.10;15.40;;;10.00;75.40;;;;;;6227567;28;20483;-59
2021/04/18 07:31:05;;;;;;;17.50;15.70;;;10.00;75.30;;;;;;6227478;28;20498;-59
2021/04/18 07:34:09;;;;;;;16.23;13.53;;;10.00;74.40;;;;;;6227443;28;20509;-60
2021/04/18 07:37:14;;;;;;;14.80;13.40;;;10.20;75.30;;;;;;6222119;28;20609;-60
2021/04/18 07:40:31;;;;;;;15.83;14.27;;;10.40;74.20;;;;;;6227146;28;20486;-60
2021/04/18 07:43:37;;;;;;;16.63;14.87;;;10.50;73.10;;;;;;6226644;28;20972;-60
2021/04/18 07:46:47;;;;;;;17.23;15.43;;;10.80;72.50;;;;;;6226675;28;20968;-60
2021/04/18 07:49:49;;;;;;;15.07;13.67;;;11.00;70.60;;;;;;6226638;28;20464;-60
2021/04/18 07:52:52;;;;;;;15.97;14.20;;;10.90;70.60;;;;;;6226354;28;20468;-59
2021/04/18 07:55:54;;;;;;;16.70;14.70;;;11.30;70.80;;;;;;6240235;28;20467;-59
2021/04/18 07:58:58;;;;;;;17.20;15.40;;;11.60;68.60;;;;;;6249353;28;20483;-59
2021/04/18 08:02:00;;;;;;;15.80;14.30;;;12.00;68.00;;;;;;6250384;28;20471;-59
2021/04/18 08:05:03;;;;;;;15.17;13.77;;;12.50;66.40;;;;;;6249990;28;20846;-59
2021/04/18 08:08:08;;;;;;;16.33;13.93;;;13.00;64.20;;;;;;6249739;28;20463;-59
2021/04/18 08:11:11;;;;;;;15.33;13.83;;;13.50;61.50;;;;;;6249785;28;20482;-59
2021/04/18 08:14:17;;;;;;;17.50;13.77;;;13.90;59.80;;;;;;6249645;28;20992;-59
2021/04/18 08:17:20;;;;;;;16.17;14.60;;;13.80;59.20;;;;;;6249713;28;20467;-59
2021/04/18 08:20:31;;;;;;;15.00;13.40;;;13.60;59.00;;;;;;6249389;28;20525;-59
2021/04/18 08:23:42;;;;;;;15.80;14.20;;;13.20;59.90;;;;;;6249219;28;21052;-59
2021/04/18 08:26:58;;;;;;;18.77;16.90;;;12.80;59.80;;;;;;6249794;28;20806;-59
2021/04/18 08:30:05;;;;;;;16.77;15.10;;;12.40;61.80;;;;;;6242257;28;20467;-59
2021/04/18 08:33:07;;;;;;;16.83;15.20;;;12.00;62.90;;;;;;6248107;28;20444;-59
2021/04/18 08:36:15;;;;;;;16.23;14.30;;;12.00;63.80;;;;;;6248883;28;20921;-59
2021/04/18 08:39:27;;;;;;;19.13;15.10;;;12.10;63.80;;;;;;6246454;28;20411;-59
2021/04/18 08:42:30;;;;;;;14.57;13.03;;;12.60;63.40;;;;;;6249344;28;20489;-59
2021/04/18 08:45:47;;;;;;;17.83;15.57;;;12.90;61.90;;;;;;6249043;28;20480;-59
2021/04/18 08:48:49;;;;;;;16.47;14.77;;;13.20;60.10;;;;;;6248581;28;20997;-59
2021/04/18 08:52:16;;;;;;;15.33;13.70;;;13.30;59.60;;;;;;6248757;28;20486;-59
2021/04/18 08:55:18;;;;;;;15.33;13.83;;;12.90;59.80;;;;;;6246692;28;20475;-59
2021/04/18 08:58:34;;;;;;;17.00;15.30;;;13.10;60.50;;;;;;6248647;28;20819;-58
2021/04/18 09:01:37;;;;;;;16.27;14.50;;;13.50;59.10;;;;;;6247811;28;20471;-58
2021/04/18 09:04:42;;;;;;;14.33;12.90;;;13.30;59.10;;;;;;6249393;28;20474;-58
2021/04/18 09:07:44;;;;;;;15.60;14.10;;;13.50;58.70;;;;;;6249359;28;20463;-59
2021/04/18 09:11:02;;;;;;;14.37;12.93;;;13.80;57.60;;;;;;6252391;28;20467;-59
2021/04/18 09:14:05;;;;;;;14.20;12.93;;;14.10;56.70;;;;;;6254927;28;20479;-60
2021/04/18 09:17:10;;;;;;;13.80;12.40;;;14.50;55.70;;;;;;6255210;28;20549;-59
2021/04/18 09:20:18;;;;;;;13.13;11.83;;;14.70;54.90;;;;;;6255389;28;20477;-60
2021/04/18 09:23:20;;;;;;;15.10;13.70;;;15.10;54.00;;;;;;6254084;28;21009;-58
2021/04/18 09:26:22;;;;;;;15.63;12.20;;;15.30;52.80;;;;;;6254578;28;20485;-58
2021/04/18 09:29:27;;;;;;;15.47;13.33;;;14.60;53.90;;;;;;6251905;28;20482;-59
2021/04/18 09:32:32;;;;;;;13.37;12.07;;;14.40;53.80;;;;;;6254215;28;20467;-59
2021/04/18 09:35:34;;;;;;;13.70;12.40;;;14.20;54.00;;;;;;6253608;28;20535;-60
2021/04/18 09:38:36;;;;;;;14.33;12.83;;;14.20;54.50;;;;;;6253790;28;21020;-59
2021/04/18 09:41:39;;;;;;;13.30;11.60;;;14.30;54.30;;;;;;6253725;28;20478;-59
2021/04/18 09:44:44;;;;;;;13.90;12.50;;;14.50;53.80;;;;;;6253786;28;20485;-59
2021/04/18 09:47:49;;;;;;;13.77;11.73;;;14.60;53.40;;;;;;6245038;28;20483;-59
2021/04/18 09:50:59;;;;;;;13.33;12.07;;;14.50;53.10;;;;;;6252994;28;20613;-61
2021/04/18 09:54:03;;;;;;;13.50;12.30;;;14.70;53.00;;;;;;6253504;28;20827;-60
2021/04/18 09:57:19;;;;;;;13.60;11.87;;;14.80;52.90;;;;;;6252794;28;20463;-61
2021/04/18 10:00:33;;;;;;;12.67;10.97;;;15.20;52.20;;;;;;6249330;28;20446;-60
2021/04/18 10:03:37;;;;;;;13.30;11.97;;;15.50;51.50;;;;;;6250924;28;20966;-60
2021/04/18 10:06:45;;;;;;;11.83;10.83;;;15.80;50.90;;;;;;6253297;28;20467;-58
2021/04/18 10:09:54;;;;;;;11.37;10.33;;;15.90;50.50;;;;;;6253121;28;20467;-57
2021/04/18 10:12:56;;;;;;;11.90;10.80;;;16.10;49.70;;;;;;6253470;28;20490;-57
2021/04/18 10:15:58;;;;;;;11.03;9.93;;;16.30;49.20;;;;;;6253382;28;20474;-58
2021/04/18 10:19:11;;;;;;;10.97;9.87;;;16.70;48.40;;;;;;6253348;28;20474;-58
2021/04/18 10:22:14;;;;;;;12.43;11.27;;;17.10;47.90;;;;;;6251899;28;20483;-62
2021/04/18 10:25:16;;;;;;;13.25;11.95;;;17.20;47.00;;;;;;6252026;28;20448;-59
2021/04/18 10:28:19;;;;;;;13.43;12.13;;;17.00;46.70;;;;;;6253099;28;20235;-59
2021/04/18 10:31:23;;;;;;;11.23;10.13;;;17.00;46.50;;;;;;6253006;28;20467;-57
2021/04/18 10:34:26;;;;;;;10.90;9.83;;;16.90;46.70;;;;;;6252706;28;20562;-60
2021/04/18 10:37:29;;;;;;;11.47;10.47;;;16.80;46.70;;;;;;6249509;28;20509;-58
2021/04/18 10:40:31;;;;;;;11.27;10.17;;;16.90;47.00;;;;;;6252460;28;20481;-58
2021/04/18 10:43:34;;;;;;;10.23;9.33;;;17.00;46.60;;;;;;6252387;28;20962;-59
2021/04/18 10:46:36;;;;;;;12.33;9.73;;;16.90;46.30;;;;;;6251734;28;20471;-60
2021/04/18 10:49:40;;;;;;;10.47;9.53;;;16.60;46.60;;;;;;6247572;28;20489;-58
2021/04/18 10:52:42;;;;;;;10.83;9.83;;;16.30;46.50;;;;;;6252259;28;20467;-60
2021/04/18 10:55:44;;;;;;;10.10;9.10;;;16.00;47.10;;;;;;6251951;28;20463;-60
2021/04/18 10:58:46;;;;;;;11.97;10.40;;;15.80;47.80;;;;;;6252157;28;20553;-59
2021/04/18 11:01:50;;;;;;;10.10;9.10;;;15.60;48.50;;;;;;6252130;28;20463;-60
2021/04/18 11:04:53;;;;;;;10.77;9.63;;;15.50;48.50;;;;;;6251737;28;20490;-59
2021/04/18 11:07:55;;;;;;;10.53;9.63;;;15.30;48.20;;;;;;6252421;28;20463;-60
2021/04/18 11:10:58;;;;;;;9.97;9.03;;;14.90;48.40;;;;;;6252194;28;20475;-60
2021/04/18 11:14:00;;;;;;;10.00;9.10;;;14.70;49.10;;;;;;6251877;28;20463;-60
2021/04/18 11:17:02;;;;;;;10.67;9.57;;;14.40;49.80;;;;;;6251478;28;20474;-61
2021/04/18 11:20:08;;;;;;;9.80;8.90;;;14.20;50.30;;;;;;6248938;28;20466;-57
2021/04/18 11:23:11;;;;;;;8.77;8.00;;;14.10;50.60;;;;;;6251840;28;20845;-59
2021/04/18 11:26:13;;;;;;;11.20;8.90;;;14.20;50.90;;;;;;6251937;28;20474;-58
2021/04/18 11:29:15;;;;;;;10.87;9.77;;;14.20;51.10;;;;;;6251871;28;20951;-58
2021/04/18 11:32:18;;;;;;;9.90;9.00;;;14.20;51.10;;;;;;6251056;28;20483;-61
2021/04/18 11:35:21;;;;;;;9.33;8.33;;;14.20;51.40;;;;;;6250548;28;20467;-59
2021/04/18 11:38:23;;;;;;;9.93;9.03;;;14.10;51.70;;;;;;6251413;28;20471;-59
2021/04/18 11:41:26;;;;;;;9.70;8.80;;;14.00;52.60;;;;;;6250744;28;20552;-60
2021/04/18 11:44:28;;;;;;;11.40;8.93;;;13.90;52.60;;;;;;6250674;28;20459;-58
2021/04/18 11:47:30;;;;;;;10.60;9.60;;;13.80;52.20;;;;;;6250660;28;20463;-59
2021/04/18 11:50:34;;;;;;;10.13;9.33;;;13.70;52.10;;;;;;6249907;28;20944;-58
2021/04/18 11:53:36;;;;;;;9.90;9.00;;;13.60;52.40;;;;;;6251486;28;20471;-61
2021/04/18 11:56:38;;;;;;;9.10;8.20;;;13.60;52.70;;;;;;6249962;28;20827;-61
2021/04/18 11:59:41;;;;;;;9.63;8.63;;;13.50;52.60;;;;;;6250653;28;20813;-62
2021/04/18 12:02:43;;;;;;;9.93;8.93;;;13.50;52.40;;;;;;6250252;28;20994;-61
2021/04/18 12:05:53;;;;;;;9.97;8.97;;;13.50;52.50;;;;;;6250061;28;20471;-59
2021/04/18 12:08:55;;;;;;;9.27;8.27;;;13.50;52.50;;;;;;6249282;28;20804;-61
2021/04/18 12:11:57;;;;;;;9.30;8.50;;;13.40;52.60;;;;;;6250572;28;20489;-60
2021/04/18 12:14:59;;;;;;;9.17;8.23;;;13.40;52.80;;;;;;6250534;28;20486;-59
2021/04/18 12:18:01;;;;;;;9.37;8.37;;;13.40;52.60;;;;;;6249519;28;20482;-58
2021/04/18 12:21:06;;;;;;;9.37;8.47;;;13.40;52.50;;;;;;6249225;28;20462;-58
2021/04/18 12:24:08;;;;;;;9.73;8.60;;;13.40;53.00;;;;;;6250144;28;20958;-58
2021/04/18 12:27:11;;;;;;;8.47;7.67;;;13.40;52.90;;;;;;6250053;28;20767;-58
2021/04/18 12:30:14;;;;;;;9.13;8.33;;;13.40;52.60;;;;;;6249821;28;20448;-59
2021/04/18 12:33:16;;;;;;;9.10;8.33;;;13.40;52.70;;;;;;6249833;28;20478;-58
2021/04/18 12:36:19;;;;;;;9.03;8.17;;;13.30;52.90;;;;;;6245195;28;20444;-58
2021/04/18 12:39:22;;;;;;;8.63;7.70;;;13.20;53.00;;;;;;6225655;28;20444;-58
2021/04/18 12:42:24;;;;;;;9.43;8.53;;;13.30;53.10;;;;;;6238343;28;20462;-58
2021/04/18 12:45:26;;;;;;;8.03;7.33;;;13.30;53.20;;;;;;6248439;28;20778;-58
2021/04/18 12:48:29;;;;;;;8.93;8.03;;;13.30;53.10;;;;;;6247809;28;20466;-58
2021/04/18 12:51:33;;;;;;;8.77;7.93;;;13.30;53.70;;;;;;6249983;28;20471;-60
2021/04/18 12:54:36;;;;;;;9.27;8.20;;;13.30;53.80;;;;;;6244490;28;20476;-59
2021/04/18 12:57:38;;;;;;;10.70;9.53;;;13.30;54.00;;;;;;6247573;28;20528;-59
2021/04/18 13:00:41;;;;;;;9.63;8.63;;;13.30;54.90;;;;;;6248407;28;20463;-59
2021/04/18 13:03:43;;;;;;;19.50;9.80;;;13.40;54.40;;;;;;6249428;28;20901;-59
2021/04/18 13:06:48;;;;;;;11.20;8.87;;;13.40;54.80;;;;;;6266402;28;20478;-58
2021/04/18 13:09:50;;;;;;;12.43;9.10;;;13.40;54.90;;;;;;6274359;28;20991;-58
2021/04/18 13:12:52;;;;;;;9.40;8.40;;;13.50;56.00;;;;;;6274347;28;20478;-58
2021/04/18 13:15:54;;;;;;;10.70;9.70;;;13.50;54.20;;;;;;6274563;28;20465;-59
2021/04/18 13:18:57;;;;;;;9.73;8.77;;;13.40;53.90;;;;;;6274239;28;20983;-59
2021/04/18 13:22:00;;;;;;;10.33;9.23;;;13.40;53.80;;;;;;6274134;28;20805;-58
2021/04/18 13:25:03;;;;;;;9.27;8.23;;;13.40;54.20;;;;;;6267964;28;20474;-64
2021/04/18 13:28:06;;;;;;;9.30;8.40;;;13.40;54.80;;;;;;6249011;28;20474;-65
2021/04/18 13:31:08;;;;;;;9.83;8.83;;;13.50;54.70;;;;;;6249478;28;20467;-64
2021/04/18 13:34:10;;;;;;;9.30;8.40;;;13.50;55.80;;;;;;6249345;28;20486;-59
2021/04/18 13:37:13;;;;;;;12.33;8.20;;;13.50;54.80;;;;;;6238814;28;20550;-59
2021/04/18 13:40:18;;;;;;;8.80;7.77;;;13.50;54.20;;;;;;6224713;28;20987;-60
2021/04/18 13:43:20;;;;;;;9.83;8.40;;;13.50;54.10;;;;;;6224792;28;20499;-59
2021/04/18 13:46:22;;;;;;;10.27;8.13;;;13.50;53.90;;;;;;6224817;28;20478;-59
2021/04/18 13:49:24;;;;;;;8.03;7.23;;;13.50;54.00;;;;;;6224693;28;20988;-62
2021/04/18 13:52:28;;;;;;;8.73;7.97;;;13.50;54.40;;;;;;6224493;28;20924;-59
2021/04/18 13:55:30;;;;;;;8.77;7.77;;;13.40;54.30;;;;;;6246484;28;20978;-59
2021/04/18 13:58:32;;;;;;;8.33;7.53;;;13.40;54.50;;;;;;6252508;28;20494;-59
2021/04/18 14:01:34;;;;;;;8.20;7.50;;;13.30;54.30;;;;;;6244144;28;20478;-59
2021/04/18 14:04:37;;;;;;;8.83;7.90;;;13.30;54.50;;;;;;6253436;28;20478;-60
2021/04/18 14:07:41;;;;;;;8.90;8.10;;;13.30;55.20;;;;;;6253627;28;20497;-59
2021/04/18 14:10:43;;;;;;;8.30;7.50;;;13.30;54.30;;;;;;6252844;28;20467;-60
2021/04/18 14:13:45;;;;;;;9.60;8.10;;;13.30;54.10;;;;;;6252932;28;20811;-59
2021/04/18 14:16:47;;;;;;;9.20;8.30;;;13.30;54.20;;;;;;6251876;28;20486;-59
2021/04/18 14:19:53;;;;;;;8.13;7.27;;;13.30;54.50;;;;;;6250242;28;20520;-59
2021/04/18 14:22:56;;;;;;;7.40;6.70;;;13.20;54.60;;;;;;6250474;28;20490;-60
2021/04/18 14:25:58;;;;;;;8.70;7.73;;;13.10;54.90;;;;;;6250319;28;21194;-59
2021/04/18 14:29:00;;;;;;;7.97;7.27;;;13.10;55.00;;;;;;6250920;28;20477;-60
2021/04/18 14:32:03;;;;;;;7.57;6.87;;;13.20;55.00;;;;;;6251241;28;20990;-60
2021/04/18 14:35:07;;;;;;;7.90;7.20;;;13.20;55.10;;;;;;6252692;28;20536;-59
2021/04/18 14:38:11;;;;;;;7.03;6.43;;;13.10;55.20;;;;;;6252801;28;20466;-60
2021/04/18 14:41:13;;;;;;;7.17;6.47;;;13.10;55.00;;;;;;6252687;28;20474;-59
2021/04/18 14:44:19;;;;;;;6.73;6.13;;;13.10;55.10;;;;;;6251858;28;20489;-59
2021/04/18 14:47:21;;;;;;;6.43;5.83;;;13.10;54.90;;;;;;6251704;28;20553;-60
2021/04/18 14:50:24;;;;;;;7.40;6.70;;;13.10;55.20;;;;;;6252099;28;20494;-60
2021/04/18 14:53:27;;;;;;;7.50;6.73;;;13.10;55.40;;;;;;6252436;28;20808;-60
2021/04/18 14:56:29;;;;;;;7.40;6.70;;;13.00;55.40;;;;;;6248800;28;20958;-60
2021/04/18 14:59:31;;;;;;;6.10;5.50;;;12.90;55.30;;;;;;6251949;28;20486;-61
2021/04/18 15:02:34;;;;;;;6.63;6.00;;;12.80;55.60;;;;;;6252274;28;20471;-59
2021/04/18 15:05:36;;;;;;;6.53;5.90;;;12.70;55.50;;;;;;6246775;28;20485;-60
2021/04/18 15:08:39;;;;;;;6.97;6.30;;;12.60;55.70;;;;;;6250542;28;20925;-61
2021/04/18 15:11:42;;;;;;;7.60;6.90;;;12.40;56.10;;;;;;6251323;28;20463;-60
2021/04/18 15:14:44;;;;;;;7.90;7.10;;;12.40;56.40;;;;;;6251340;28;20486;-60
2021/04/18 15:17:46;;;;;;;6.23;5.73;;;12.40;56.40;;;;;;6251691;28;20470;-61
2021/04/18 15:20:49;;;;;;;9.23;5.77;;;12.50;56.40;;;;;;6251854;28;20471;-60
2021/04/18 15:23:53;;;;;;;6.50;6.00;;;12.50;56.50;;;;;;6251504;28;20569;-61
2021/04/18 15:26:55;;;;;;;6.50;5.90;;;12.50;56.50;;;;;;6251695;28;20478;-61
2021/04/18 15:29:57;;;;;;;6.37;5.77;;;12.40;56.90;;;;;;6251611;28;20471;-60
2021/04/18 15:33:00;;;;;;;6.20;5.60;;;12.30;57.80;;;;;;6251198;28;20475;-61
2021/04/18 15:36:04;;;;;;;6.23;5.60;;;12.10;58.50;;;;;;6249925;28;20479;-59
2021/04/18 15:39:09;;;;;;;6.97;6.27;;;12.10;59.00;;;;;;6234476;28;20486;-59
2021/04/18 15:42:12;;;;;;;7.03;6.33;;;12.10;59.00;;;;;;6251082;28;20470;-58
2021/04/18 15:45:15;;;;;;;6.60;5.77;;;12.00;59.20;;;;;;6251427;28;20487;-59